Time;durP1;ratioP1;P1;durP2;ratioP2;P2;SDS_P1;SDS_P2;PMS_P1;PMS_P2;Temp;Humidity;BMP_temperature;BMP_pressure;BME280_temperature;BME280_humidity;BME280_pressure;Samples;Min_cycle;Max_cycle;Signal;HPM_P1;HPM_P2
2021/07/30 00:00:42;;;;;;;8.02;5.50;;;17.90;81.60;;;;;;5046596;28;20025;-69
2021/07/30 00:03:08;;;;;;;7.50;5.35;;;17.90;81.40;;;;;;5047004;28;20301;-69
2021/07/30 00:05:34;;;;;;;6.93;5.55;;;17.90;81.60;;;;;;5046901;28;20080;-69
2021/07/30 00:07:59;;;;;;;7.65;5.68;;;17.90;81.50;;;;;;5046436;28;20034;-68
2021/07/30 00:10:25;;;;;;;7.72;5.38;;;17.90;81.40;;;;;;5046295;28;20042;-69
2021/07/30 00:12:55;;;;;;;9.23;5.85;;;17.90;81.40;;;;;;5045440;28;20431;-69
2021/07/30 00:15:21;;;;;;;7.68;6.00;;;17.80;81.70;;;;;;5046628;28;20064;-68
2021/07/30 00:17:46;;;;;;;7.00;5.43;;;17.80;81.70;;;;;;5046919;28;20336;-68
2021/07/30 00:20:12;;;;;;;9.00;5.53;;;17.80;81.70;;;;;;5046217;28;20033;-69
2021/07/30 00:22:37;;;;;;;9.40;5.68;;;17.80;81.60;;;;;;5046023;28;20037;-69
2021/07/30 00:25:04;;;;;;;7.78;5.60;;;17.80;81.60;;;;;;5046021;28;20105;-67
2021/07/30 00:27:30;;;;;;;6.90;5.32;;;17.70;81.60;;;;;;5046262;28;20037;-68
2021/07/30 00:29:55;;;;;;;7.68;5.43;;;17.80;81.70;;;;;;5046458;28;20114;-68
2021/07/30 00:32:21;;;;;;;9.35;5.68;;;17.90;81.80;;;;;;5046455;28;20036;-71
2021/07/30 00:34:46;;;;;;;8.27;5.85;;;17.90;80.90;;;;;;5046344;28;20045;-69
2021/07/30 00:37:12;;;;;;;7.30;5.40;;;17.90;80.60;;;;;;5046448;28;20049;-69
2021/07/30 00:39:37;;;;;;;8.60;5.53;;;17.80;80.80;;;;;;5046100;28;20038;-69
2021/07/30 00:42:03;;;;;;;9.73;6.00;;;17.60;81.40;;;;;;5046543;28;20025;-71
2021/07/30 00:44:29;;;;;;;8.40;5.65;;;17.60;81.60;;;;;;5046331;28;20037;-70
2021/07/30 00:46:56;;;;;;;8.70;6.28;;;17.50;81.80;;;;;;5045702;28;20236;-70
2021/07/30 00:49:22;;;;;;;7.53;5.70;;;17.50;82.00;;;;;;5045617;28;20044;-70
2021/07/30 00:51:47;;;;;;;8.85;5.55;;;17.50;82.10;;;;;;5045861;28;20029;-70
2021/07/30 00:54:13;;;;;;;9.98;5.38;;;17.50;82.20;;;;;;5045292;28;20040;-69
2021/07/30 00:56:38;;;;;;;9.48;5.70;;;17.50;82.20;;;;;;5046301;28;20064;-69
2021/07/30 00:59:04;;;;;;;9.05;6.05;;;17.50;82.20;;;;;;5045536;28;20030;-69
2021/07/30 01:01:29;;;;;;;8.98;6.07;;;17.40;82.20;;;;;;5028014;28;20033;-69
2021/07/30 01:03:55;;;;;;;11.20;5.65;;;17.40;82.00;;;;;;5044438;28;20037;-69
2021/07/30 01:06:20;;;;;;;8.77;5.63;;;17.30;82.10;;;;;;5045830;28;20036;-70
2021/07/30 01:08:46;;;;;;;7.22;5.38;;;17.40;82.00;;;;;;5045369;28;20037;-70
2021/07/30 01:11:11;;;;;;;10.27;5.90;;;17.30;82.00;;;;;;5045246;28;20297;-69
2021/07/30 01:13:37;;;;;;;10.60;5.68;;;17.30;82.30;;;;;;5045203;28;20041;-69
2021/07/30 01:16:04;;;;;;;7.55;5.50;;;17.30;82.30;;;;;;5045359;28;20026;-69
2021/07/30 01:18:29;;;;;;;6.88;5.68;;;17.40;82.20;;;;;;5045065;28;20056;-69
2021/07/30 01:21:29;;;;;;;9.50;5.38;;;17.40;82.50;;;;;;5046117;28;20045;-69
2021/07/30 01:23:54;;;;;;;7.78;5.50;;;17.30;82.40;;;;;;5023098;28;20049;-69
2021/07/30 01:26:20;;;;;;;7.03;5.20;;;17.30;82.90;;;;;;5044739;28;20041;-69
2021/07/30 01:28:45;;;;;;;7.13;5.57;;;17.60;83.10;;;;;;5044083;28;20105;-70
2021/07/30 01:31:11;;;;;;;9.93;5.55;;;17.50;82.40;;;;;;5045063;28;20079;-70
2021/07/30 01:33:36;;;;;;;7.28;5.30;;;17.50;82.70;;;;;;5045078;28;20101;-69
2021/07/30 01:36:02;;;;;;;7.90;5.45;;;17.40;82.60;;;;;;5045280;28;20032;-70
2021/07/30 01:38:27;;;;;;;8.45;5.43;;;17.40;82.60;;;;;;5045293;28;20037;-70
2021/07/30 01:40:53;;;;;;;9.27;5.50;;;17.30;82.60;;;;;;5045282;28;20068;-70
2021/07/30 01:43:18;;;;;;;8.00;5.43;;;17.40;82.50;;;;;;5044845;28;20332;-69
2021/07/30 01:45:44;;;;;;;9.07;5.72;;;17.30;82.40;;;;;;5044679;28;20025;-69
2021/07/30 01:48:09;;;;;;;10.60;5.78;;;17.30;82.70;;;;;;5045320;28;20087;-69
2021/07/30 01:50:35;;;;;;;8.02;5.70;;;17.30;83.00;;;;;;5044984;28;20045;-69
2021/07/30 01:53:01;;;;;;;7.40;5.70;;;17.20;82.70;;;;;;5044626;28;20041;-70
2021/07/30 01:55:27;;;;;;;7.78;5.78;;;17.10;82.80;;;;;;5044591;28;20092;-69
2021/07/30 01:57:52;;;;;;;7.43;5.65;;;17.20;82.90;;;;;;5044455;28;20056;-69
2021/07/30 02:00:18;;;;;;;8.40;5.50;;;17.20;82.80;;;;;;5045060;28;20025;-69
2021/07/30 02:02:43;;;;;;;7.70;5.63;;;17.20;82.90;;;;;;5043715;28;20029;-70
2021/07/30 02:05:09;;;;;;;6.85;5.13;;;17.40;82.80;;;;;;5044631;28;20025;-69
2021/07/30 02:07:36;;;;;;;7.57;5.80;;;17.50;82.00;;;;;;5044604;28;20044;-69
2021/07/30 02:10:03;;;;;;;7.97;5.85;;;17.40;81.60;;;;;;5044153;28;20045;-70
2021/07/30 02:12:28;;;;;;;10.50;5.90;;;17.50;81.50;;;;;;5044360;28;20260;-69
2021/07/30 02:14:54;;;;;;;7.93;5.47;;;17.40;81.80;;;;;;5045116;28;20072;-69
2021/07/30 02:17:19;;;;;;;12.73;6.25;;;17.40;81.40;;;;;;5044513;28;20029;-70
2021/07/30 02:19:45;;;;;;;7.72;5.97;;;17.20;81.90;;;;;;5044318;28;20045;-69
2021/07/30 02:22:10;;;;;;;11.23;6.20;;;17.20;82.30;;;;;;5044284;28;20041;-69
2021/07/30 02:24:36;;;;;;;9.25;5.93;;;17.10;82.60;;;;;;5043655;28;20049;-69
2021/07/30 02:27:02;;;;;;;9.48;6.13;;;17.10;82.70;;;;;;5044646;28;20384;-69
2021/07/30 02:29:28;;;;;;;7.57;5.82;;;17.10;82.80;;;;;;5044224;28;20063;-69
2021/07/30 02:31:53;;;;;;;9.02;5.63;;;17.20;82.60;;;;;;5044111;28;20049;-69
2021/07/30 02:34:19;;;;;;;6.85;5.68;;;17.10;82.90;;;;;;5043943;28;20043;-70
2021/07/30 02:36:44;;;;;;;9.10;5.53;;;17.00;83.00;;;;;;5042967;28;20048;-70
2021/07/30 02:39:10;;;;;;;8.50;5.97;;;17.00;83.20;;;;;;5044444;28;20029;-70
2021/07/30 02:41:35;;;;;;;7.22;5.20;;;17.10;83.20;;;;;;5043247;28;20037;-69
2021/07/30 02:44:01;;;;;;;11.07;6.05;;;17.20;83.40;;;;;;5044093;28;20256;-70
2021/07/30 02:46:26;;;;;;;7.15;5.40;;;17.10;83.20;;;;;;5043801;28;20045;-70
2021/07/30 02:48:52;;;;;;;9.30;6.05;;;17.10;83.40;;;;;;5043703;28;20057;-69
2021/07/30 02:51:18;;;;;;;8.55;5.55;;;17.10;83.50;;;;;;5044026;28;20032;-70
2021/07/30 02:53:43;;;;;;;5.95;4.95;;;17.10;83.50;;;;;;5044091;28;20037;-70
2021/07/30 02:56:09;;;;;;;8.43;6.00;;;17.30;83.70;;;;;;5044073;28;20037;-70
2021/07/30 02:58:36;;;;;;;7.82;6.20;;;17.20;82.70;;;;;;5043436;28;20057;-70
2021/07/30 03:01:02;;;;;;;10.23;5.35;;;17.10;83.20;;;;;;5042416;28;20352;-69
2021/07/30 03:03:27;;;;;;;7.78;5.65;;;17.10;83.00;;;;;;5043441;28;20033;-69
2021/07/30 03:05:53;;;;;;;7.18;5.43;;;17.10;83.20;;;;;;5044432;28;20332;-70
2021/07/30 03:08:21;;;;;;;7.35;5.40;;;17.10;83.10;;;;;;5043810;28;20376;-70
2021/07/30 03:10:46;;;;;;;9.85;5.72;;;17.10;83.30;;;;;;5043445;28;20033;-69
2021/07/30 03:13:12;;;;;;;8.70;5.70;;;17.00;83.30;;;;;;5043359;28;20029;-70
2021/07/30 03:15:37;;;;;;;9.63;5.85;;;17.00;83.40;;;;;;5043499;28;20144;-69
2021/07/30 03:18:03;;;;;;;8.15;5.63;;;17.10;83.90;;;;;;5044364;28;20217;-70
2021/07/30 03:20:28;;;;;;;9.50;6.25;;;17.10;83.50;;;;;;5043746;28;20036;-70
2021/07/30 03:22:54;;;;;;;7.57;5.75;;;17.10;83.80;;;;;;5043079;28;20029;-69
2021/07/30 03:25:19;;;;;;;8.27;5.80;;;17.10;84.10;;;;;;5043252;28;20328;-70
2021/07/30 03:27:45;;;;;;;10.75;6.43;;;17.20;84.10;;;;;;5043466;28;20045;-70
2021/07/30 03:30:11;;;;;;;9.43;6.00;;;17.20;83.80;;;;;;5043674;28;20033;-69
2021/07/30 03:32:36;;;;;;;10.10;6.05;;;17.20;84.00;;;;;;5043705;28;20056;-70
2021/07/30 03:35:02;;;;;;;11.35;5.30;;;17.30;84.20;;;;;;5043552;28;20034;-70
2021/07/30 03:37:28;;;;;;;8.20;5.65;;;17.30;83.40;;;;;;5042180;28;20052;-69
2021/07/30 03:39:53;;;;;;;10.40;5.47;;;17.30;83.60;;;;;;5043236;28;20029;-69
2021/07/30 03:42:18;;;;;;;8.38;6.53;;;17.20;84.00;;;;;;5043806;28;20036;-70
2021/07/30 03:44:44;;;;;;;9.77;6.07;;;17.40;84.50;;;;;;5043126;28;20034;-70
2021/07/30 03:47:10;;;;;;;7.35;5.70;;;17.40;83.80;;;;;;5043679;28;20213;-69
2021/07/30 03:49:35;;;;;;;11.05;5.93;;;17.30;84.50;;;;;;5045445;28;20052;-70
2021/07/30 03:52:01;;;;;;;10.65;6.18;;;17.40;84.00;;;;;;5046869;28;20084;-70
2021/07/30 03:54:26;;;;;;;9.20;6.05;;;17.30;83.90;;;;;;5046709;28;20372;-69
2021/07/30 03:56:52;;;;;;;9.50;6.93;;;17.30;84.20;;;;;;5047407;28;20061;-70
2021/07/30 03:59:17;;;;;;;10.38;6.90;;;17.30;84.30;;;;;;5046712;28;20033;-70
2021/07/30 04:01:47;;;;;;;13.05;6.53;;;17.30;84.40;;;;;;5046504;28;20233;-70
2021/07/30 04:04:16;;;;;;;9.43;5.95;;;17.40;84.80;;;;;;5046528;28;20220;-70
2021/07/30 04:06:43;;;;;;;10.00;6.45;;;17.40;83.90;;;;;;5045816;28;20041;-70
2021/07/30 04:09:15;;;;;;;7.35;5.95;;;17.30;84.00;;;;;;5046873;28;20071;-70
2021/07/30 04:11:41;;;;;;;9.43;6.45;;;17.30;84.30;;;;;;5047217;28;20029;-70
2021/07/30 04:14:07;;;;;;;11.45;6.38;;;17.30;84.50;;;;;;5046266;28;20206;-69
2021/07/30 04:16:33;;;;;;;12.60;6.32;;;17.30;84.70;;;;;;5045432;28;20132;-69
2021/07/30 04:18:59;;;;;;;9.57;6.65;;;17.30;84.80;;;;;;5046320;28;20041;-68
2021/07/30 04:21:24;;;;;;;8.20;6.30;;;17.40;84.80;;;;;;5046422;28;20022;-69
2021/07/30 04:23:50;;;;;;;9.77;6.53;;;17.50;84.70;;;;;;5046502;28;20088;-69
2021/07/30 04:26:15;;;;;;;11.30;6.82;;;17.60;84.50;;;;;;5046502;28;20202;-69
2021/07/30 04:28:41;;;;;;;9.73;6.72;;;17.50;84.00;;;;;;5046525;28;20042;-69
2021/07/30 04:31:06;;;;;;;10.63;7.65;;;17.40;84.30;;;;;;5046128;28;20053;-69
2021/07/30 04:33:33;;;;;;;8.55;6.70;;;17.50;84.70;;;;;;5045954;28;20084;-68
2021/07/30 04:35:58;;;;;;;10.25;6.68;;;17.60;84.10;;;;;;5046691;28;20091;-69
2021/07/30 04:38:24;;;;;;;9.07;6.25;;;17.70;83.60;;;;;;5046345;28;20293;-69
2021/07/30 04:40:49;;;;;;;10.32;6.85;;;17.50;83.80;;;;;;5046132;28;20056;-69
2021/07/30 04:43:15;;;;;;;11.45;7.20;;;17.50;84.40;;;;;;5046076;28;20029;-69
2021/07/30 04:45:40;;;;;;;9.82;7.35;;;17.50;84.00;;;;;;5046014;28;20565;-68
2021/07/30 04:48:06;;;;;;;10.25;6.70;;;17.50;84.50;;;;;;5046479;28;20029;-69
2021/07/30 04:50:31;;;;;;;10.90;7.38;;;17.70;84.60;;;;;;5028413;28;20190;-69
2021/07/30 04:52:57;;;;;;;11.15;6.95;;;17.80;84.10;;;;;;5044493;28;20085;-69
2021/07/30 04:55:23;;;;;;;9.25;7.28;;;17.80;84.30;;;;;;5045915;28;20078;-69
2021/07/30 04:57:48;;;;;;;9.15;7.10;;;17.80;83.60;;;;;;5045528;28;20288;-69
2021/07/30 05:00:14;;;;;;;10.32;6.85;;;17.80;83.20;;;;;;5044735;28;20026;-69
2021/07/30 05:02:40;;;;;;;9.52;7.15;;;17.80;83.20;;;;;;5045850;28;20038;-69
2021/07/30 05:05:06;;;;;;;11.40;7.28;;;17.80;83.50;;;;;;5045713;28;20198;-69
2021/07/30 05:07:31;;;;;;;11.90;6.90;;;17.80;83.80;;;;;;5045434;28;20044;-69
2021/07/30 05:09:57;;;;;;;10.88;7.60;;;17.80;83.90;;;;;;5045229;28;20033;-69
2021/07/30 05:12:22;;;;;;;10.70;7.07;;;17.80;83.50;;;;;;5045528;28;20097;-68
2021/07/30 05:14:48;;;;;;;9.13;7.20;;;17.80;83.00;;;;;;5045900;28;20033;-69
2021/07/30 05:17:13;;;;;;;11.13;7.95;;;17.90;83.20;;;;;;5045512;28;20033;-69
2021/07/30 05:19:39;;;;;;;8.77;7.18;;;17.80;83.10;;;;;;5045412;28;20029;-69
2021/07/30 05:22:05;;;;;;;9.38;7.70;;;17.80;83.20;;;;;;5045168;28;20026;-69
2021/07/30 05:24:30;;;;;;;9.75;7.32;;;17.80;83.10;;;;;;5043732;28;20080;-68
2021/07/30 05:26:57;;;;;;;8.85;7.10;;;17.80;83.60;;;;;;5044607;28;20072;-69
2021/07/30 05:29:22;;;;;;;9.77;7.07;;;17.90;83.20;;;;;;5045249;28;20034;-69
2021/07/30 05:31:47;;;;;;;15.82;7.28;;;17.90;83.70;;;;;;5045053;28;20044;-69
2021/07/30 05:34:13;;;;;;;10.25;7.53;;;17.90;83.90;;;;;;5043825;28;20037;-69
2021/07/30 05:36:41;;;;;;;10.75;7.65;;;17.90;83.90;;;;;;5044638;28;20325;-69
2021/07/30 05:39:06;;;;;;;9.25;6.82;;;17.90;84.00;;;;;;5044245;28;20040;-69
2021/07/30 05:41:32;;;;;;;12.57;7.65;;;18.00;84.10;;;;;;5045347;28;20041;-69
2021/07/30 05:43:57;;;;;;;13.02;7.55;;;18.00;83.70;;;;;;5044632;28;20029;-69
2021/07/30 05:46:23;;;;;;;10.82;7.82;;;18.00;83.80;;;;;;5044504;28;20037;-69
2021/07/30 05:48:49;;;;;;;11.93;8.13;;;18.10;83.20;;;;;;5044424;28;20198;-69
2021/07/30 05:51:15;;;;;;;10.82;7.97;;;18.00;83.00;;;;;;5044922;28;20036;-69
2021/07/30 05:53:40;;;;;;;14.95;7.97;;;18.10;82.40;;;;;;5044925;28;20038;-69
2021/07/30 05:56:06;;;;;;;11.75;7.85;;;18.10;82.30;;;;;;5044808;28;20039;-71
2021/07/30 05:58:32;;;;;;;13.75;7.45;;;18.20;82.20;;;;;;5044411;28;20088;-69
2021/07/30 06:00:57;;;;;;;11.18;7.25;;;18.30;82.50;;;;;;5044375;28;20094;-70
2021/07/30 06:03:23;;;;;;;10.48;7.53;;;18.30;82.50;;;;;;5044570;28;20029;-68
2021/07/30 06:05:48;;;;;;;11.35;7.80;;;18.40;82.80;;;;;;5044708;28;20068;-70
2021/07/30 06:08:14;;;;;;;16.35;8.73;;;18.40;82.50;;;;;;5044723;28;20037;-69
2021/07/30 06:10:39;;;;;;;12.93;8.00;;;18.40;82.20;;;;;;5044143;28;20104;-69
2021/07/30 06:13:05;;;;;;;11.18;8.05;;;18.40;80.80;;;;;;5043914;28;20356;-69
2021/07/30 06:15:31;;;;;;;13.73;7.75;;;18.50;80.60;;;;;;5044119;28;20095;-68
2021/07/30 06:17:56;;;;;;;12.77;7.10;;;18.60;81.30;;;;;;5044872;28;20029;-68
2021/07/30 06:20:24;;;;;;;9.60;7.30;;;18.60;81.00;;;;;;5044543;28;20096;-69
2021/07/30 06:22:50;;;;;;;12.70;7.63;;;18.70;80.70;;;;;;5044334;28;20336;-69
2021/07/30 06:25:15;;;;;;;10.70;6.78;;;18.80;80.20;;;;;;5043963;28;20045;-69
2021/07/30 06:27:41;;;;;;;10.40;6.82;;;18.80;80.40;;;;;;5044212;28;20042;-69
2021/07/30 06:30:07;;;;;;;10.82;6.70;;;18.80;80.60;;;;;;5043178;28;20044;-69
2021/07/30 06:32:34;;;;;;;10.48;6.68;;;18.90;81.30;;;;;;5044296;28;20055;-69
2021/07/30 06:34:59;;;;;;;9.57;6.80;;;18.90;80.90;;;;;;5044183;28;20039;-69
2021/07/30 06:37:25;;;;;;;12.98;7.22;;;19.10;80.50;;;;;;5043922;28;20261;-69
2021/07/30 06:39:50;;;;;;;12.75;7.55;;;19.10;80.70;;;;;;5044061;28;20034;-69
2021/07/30 06:42:16;;;;;;;12.10;7.28;;;19.20;80.60;;;;;;5044542;28;20033;-70
2021/07/30 06:44:47;;;;;;;10.40;7.10;;;19.30;81.50;;;;;;5044222;28;20092;-69
2021/07/30 06:47:13;;;;;;;10.32;7.00;;;19.30;81.70;;;;;;5043122;28;20139;-70
2021/07/30 06:49:38;;;;;;;10.18;6.50;;;19.40;81.90;;;;;;5043782;28;20037;-70
2021/07/30 06:52:07;;;;;;;14.52;6.80;;;19.50;81.60;;;;;;5043728;28;20029;-69
2021/07/30 06:54:33;;;;;;;10.02;7.25;;;19.50;81.50;;;;;;5043790;28;20079;-69
2021/07/30 06:57:02;;;;;;;10.75;7.20;;;19.50;81.10;;;;;;5044182;28;20036;-70
2021/07/30 06:59:28;;;;;;;9.13;7.20;;;19.60;80.80;;;;;;5043909;28;20038;-70
2021/07/30 07:01:54;;;;;;;10.73;7.00;;;19.60;81.40;;;;;;5043399;28;20037;-70
2021/07/30 07:04:19;;;;;;;8.98;6.97;;;19.60;81.20;;;;;;5043458;28;20333;-70
2021/07/30 07:06:47;;;;;;;10.25;7.03;;;19.50;81.80;;;;;;5043476;28;20300;-69
2021/07/30 07:09:13;;;;;;;10.57;6.88;;;19.50;81.60;;;;;;5044099;28;20036;-70
2021/07/30 07:11:39;;;;;;;10.75;6.93;;;19.60;80.70;;;;;;5043907;28;20034;-70
2021/07/30 07:14:04;;;;;;;11.75;7.38;;;19.80;81.90;;;;;;5043760;28;20042;-69
2021/07/30 07:16:30;;;;;;;11.13;7.05;;;19.90;81.60;;;;;;5043620;28;20034;-69
2021/07/30 07:18:56;;;;;;;9.35;6.90;;;20.00;81.80;;;;;;5043562;28;20045;-69
2021/07/30 07:21:21;;;;;;;9.40;7.20;;;20.10;81.60;;;;;;5043865;28;20053;-68
2021/07/30 07:23:48;;;;;;;9.98;6.30;;;20.30;81.80;;;;;;5045049;28;20057;-70
2021/07/30 07:26:14;;;;;;;9.05;6.78;;;20.40;80.60;;;;;;5047968;28;20044;-70
2021/07/30 07:28:39;;;;;;;11.15;6.80;;;20.50;81.40;;;;;;5047625;28;20101;-70
2021/07/30 07:31:05;;;;;;;10.40;6.47;;;20.70;78.90;;;;;;5047377;28;20036;-70
2021/07/30 07:33:30;;;;;;;9.98;6.40;;;20.80;79.40;;;;;;5047202;28;20248;-69
2021/07/30 07:35:56;;;;;;;10.45;6.95;;;20.90;78.90;;;;;;5047025;28;20018;-70
2021/07/30 07:38:21;;;;;;;8.35;6.53;;;21.10;79.80;;;;;;5047567;28;20034;-70
2021/07/30 07:40:47;;;;;;;8.50;6.22;;;21.30;77.40;;;;;;5047026;28;20034;-70
2021/07/30 07:43:12;;;;;;;12.80;6.32;;;21.30;77.30;;;;;;5047130;28;20032;-70
2021/07/30 07:45:38;;;;;;;9.75;6.22;;;21.50;77.70;;;;;;5047682;28;20253;-69
2021/07/30 07:48:04;;;;;;;8.68;6.20;;;21.50;75.70;;;;;;5047988;28;20095;-70
2021/07/30 07:50:30;;;;;;;10.32;6.45;;;21.60;75.50;;;;;;5047285;28;20033;-70
2021/07/30 07:52:55;;;;;;;8.77;6.28;;;21.80;77.80;;;;;;5046958;28;20034;-70
2021/07/30 07:55:21;;;;;;;11.98;6.28;;;21.90;76.00;;;;;;5046981;28;20033;-70
2021/07/30 07:57:46;;;;;;;8.68;6.75;;;21.90;75.20;;;;;;5046947;28;20072;-70
2021/07/30 08:00:12;;;;;;;9.48;6.65;;;21.80;74.10;;;;;;5047433;28;20029;-70
2021/07/30 08:02:38;;;;;;;7.45;5.90;;;21.80;74.00;;;;;;5047158;28;20037;-70
2021/07/30 08:05:04;;;;;;;10.48;6.65;;;21.90;74.10;;;;;;5046667;28;20096;-70
2021/07/30 08:07:29;;;;;;;7.30;5.72;;;22.30;75.40;;;;;;5046768;28;20033;-70
2021/07/30 08:09:55;;;;;;;11.15;6.15;;;22.50;73.40;;;;;;5046442;28;20047;-69
2021/07/30 08:12:20;;;;;;;7.75;5.55;;;22.60;74.60;;;;;;5046990;28;20056;-71
2021/07/30 08:14:46;;;;;;;8.32;5.30;;;22.50;73.00;;;;;;5046994;28;20033;-70
2021/07/30 08:17:11;;;;;;;6.43;5.28;;;22.40;73.50;;;;;;5046833;28;20034;-70
2021/07/30 08:19:37;;;;;;;7.90;5.68;;;22.30;71.50;;;;;;5046593;28;20029;-69
2021/07/30 08:22:03;;;;;;;11.98;5.55;;;22.40;71.80;;;;;;5046556;28;20321;-70
2021/07/30 08:24:29;;;;;;;7.57;5.43;;;22.50;71.60;;;;;;5045952;28;20041;-69
2021/07/30 08:26:55;;;;;;;7.63;6.22;;;22.60;71.60;;;;;;5046991;28;20085;-70
2021/07/30 08:29:20;;;;;;;7.32;5.63;;;22.70;73.70;;;;;;5046518;28;20040;-70
2021/07/30 08:31:46;;;;;;;7.30;5.60;;;23.10;73.80;;;;;;5046341;28;20041;-70
2021/07/30 08:34:12;;;;;;;7.03;5.40;;;23.10;73.20;;;;;;5045870;28;20029;-70
2021/07/30 08:36:38;;;;;;;9.45;5.47;;;23.30;72.50;;;;;;5045888;28;20041;-69
2021/07/30 08:39:03;;;;;;;9.18;5.88;;;23.40;71.30;;;;;;5046372;28;20343;-70
2021/07/30 08:41:29;;;;;;;7.95;5.47;;;23.30;70.20;;;;;;5046435;28;20257;-70
2021/07/30 08:43:55;;;;;;;8.23;5.82;;;23.40;70.40;;;;;;5044704;28;20045;-70
2021/07/30 08:46:24;;;;;;;10.63;6.00;;;23.60;71.50;;;;;;5046026;28;20041;-70
2021/07/30 08:48:50;;;;;;;9.27;5.25;;;23.70;69.10;;;;;;5045688;28;20045;-69
2021/07/30 08:51:16;;;;;;;6.45;5.38;;;23.70;66.80;;;;;;5046452;28;20025;-70
2021/07/30 08:53:42;;;;;;;7.22;5.13;;;23.80;69.40;;;;;;5045119;28;20265;-70
2021/07/30 08:56:07;;;;;;;7.55;5.38;;;23.80;68.10;;;;;;5028017;28;20037;-70
2021/07/30 08:58:34;;;;;;;7.50;5.15;;;23.80;67.60;;;;;;5045595;28;20365;-70
2021/07/30 09:00:59;;;;;;;7.30;5.32;;;23.90;69.00;;;;;;5044735;28;20030;-70
2021/07/30 09:03:41;;;;;;;8.48;6.18;;;24.10;69.70;;;;;;5045524;28;20201;-70
2021/07/30 09:06:16;;;;;;;7.97;5.70;;;24.20;70.50;;;;;;5046245;28;20088;-70
2021/07/30 09:08:42;;;;;;;9.10;5.85;;;24.20;67.40;;;;;;5046126;28;20040;-71
2021/07/30 09:11:07;;;;;;;7.50;5.60;;;24.10;66.90;;;;;;5045481;28;20025;-69
2021/07/30 09:13:33;;;;;;;7.18;5.45;;;24.30;66.80;;;;;;5045816;28;20064;-70
2021/07/30 09:16:06;;;;;;;8.68;5.53;;;24.50;69.80;;;;;;5045376;28;20029;-68
2021/07/30 09:18:38;;;;;;;6.38;5.15;;;24.60;65.10;;;;;;5044102;28;20072;-68
2021/07/30 09:21:29;;;;;;;7.00;5.25;;;24.60;66.30;;;;;;5045653;28;20089;-68
2021/07/30 09:23:59;;;;;;;6.50;5.28;;;24.60;67.90;;;;;;5044232;28;20095;-68
2021/07/30 09:26:27;;;;;;;7.47;5.47;;;24.70;65.70;;;;;;5045683;28;20089;-70
2021/07/30 09:28:54;;;;;;;8.75;5.35;;;24.80;64.50;;;;;;5045285;28;20104;-69
2021/07/30 09:31:20;;;;;;;10.20;5.80;;;24.80;65.90;;;;;;5045160;28;20029;-69
2021/07/30 09:33:45;;;;;;;6.35;4.85;;;24.90;63.70;;;;;;5044068;28;20343;-68
2021/07/30 09:36:11;;;;;;;11.85;5.72;;;25.10;63.80;;;;;;5044596;28;20035;-68
2021/07/30 09:38:36;;;;;;;6.85;5.60;;;25.40;64.30;;;;;;5044198;28;20032;-69
2021/07/30 09:41:12;;;;;;;9.68;5.25;;;25.30;65.40;;;;;;5045187;28;20320;-69
2021/07/30 09:43:39;;;;;;;7.63;5.45;;;25.60;65.40;;;;;;5044913;28;20030;-69
2021/07/30 09:46:15;;;;;;;8.65;5.90;;;25.80;67.30;;;;;;5043132;28;20055;-69
2021/07/30 09:48:48;;;;;;;7.20;5.30;;;25.90;65.60;;;;;;5044538;28;20029;-69
2021/07/30 09:51:14;;;;;;;8.27;5.40;;;25.90;65.80;;;;;;5045064;28;20356;-69
2021/07/30 09:53:40;;;;;;;10.40;5.90;;;25.70;63.20;;;;;;5027623;28;20029;-69
2021/07/30 09:56:05;;;;;;;7.30;5.68;;;25.50;62.80;;;;;;5044565;28;20045;-69
2021/07/30 09:58:31;;;;;;;6.30;5.20;;;25.60;62.80;;;;;;5044443;28;20030;-69
2021/07/30 10:00:56;;;;;;;8.25;5.45;;;25.60;62.50;;;;;;5043194;28;20021;-69
2021/07/30 10:03:22;;;;;;;8.00;5.57;;;25.80;65.80;;;;;;5044623;28;20236;-68
2021/07/30 10:05:50;;;;;;;6.72;5.53;;;26.00;65.60;;;;;;5043725;28;20029;-69
2021/07/30 10:08:16;;;;;;;8.00;5.13;;;26.10;64.60;;;;;;5044839;28;20034;-69
2021/07/30 10:10:43;;;;;;;7.18;5.70;;;26.40;65.50;;;;;;5044623;28;20078;-69
2021/07/30 10:13:14;;;;;;;7.05;5.28;;;26.30;64.40;;;;;;5044570;28;20037;-69
2021/07/30 10:15:40;;;;;;;6.30;5.20;;;26.40;65.40;;;;;;5044420;28;20320;-69
2021/07/30 10:18:06;;;;;;;7.03;4.95;;;26.40;61.70;;;;;;5044480;28;20029;-70
2021/07/30 10:20:31;;;;;;;7.85;5.25;;;26.30;57.90;;;;;;5043477;28;20109;-69
2021/07/30 10:23:05;;;;;;;6.47;5.03;;;26.50;59.60;;;;;;5042936;28;20136;-68
2021/07/30 10:25:35;;;;;;;6.70;5.20;;;26.50;60.80;;;;;;5043298;28;20328;-69
2021/07/30 10:28:21;;;;;;;8.77;5.13;;;26.60;57.40;;;;;;5043267;28;20034;-69
2021/07/30 10:30:53;;;;;;;7.30;4.93;;;26.70;59.70;;;;;;5042929;28;20041;-70
2021/07/30 10:33:30;;;;;;;8.07;4.85;;;26.70;60.70;;;;;;5044916;28;20244;-69
2021/07/30 10:35:59;;;;;;;7.97;5.40;;;26.90;61.10;;;;;;5044556;28;20277;-69
2021/07/30 10:38:25;;;;;;;7.07;5.20;;;27.10;62.60;;;;;;5044280;28;20438;-69
2021/07/30 10:41:09;;;;;;;7.43;5.20;;;27.00;59.30;;;;;;5043842;28;20336;-69
2021/07/30 10:43:49;;;;;;;8.90;5.50;;;27.00;59.80;;;;;;5043998;28;20037;-69
2021/07/30 10:46:16;;;;;;;;;;;27.10;60.00;;;;;;5044501;28;20036;-69
2021/07/30 10:48:41;;;;;;;10.32;4.90;;;27.00;58.50;;;;;;5043585;28;19953;-69
2021/07/30 10:51:28;;;;;;;8.43;5.47;;;27.00;57.80;;;;;;5044637;28;20407;-69
2021/07/30 10:53:59;;;;;;;7.72;4.88;;;27.00;56.70;;;;;;5044344;28;20095;-69
2021/07/30 10:56:28;;;;;;;7.47;5.07;;;27.20;60.10;;;;;;5044110;28;20097;-70
2021/07/30 10:58:54;;;;;;;7.00;5.28;;;27.20;53.90;;;;;;5042745;28;20348;-69
2021/07/30 11:01:23;;;;;;;8.35;5.68;;;27.10;54.60;;;;;;5043706;28;20072;-69
2021/07/30 11:03:48;;;;;;;5.72;4.80;;;27.20;54.30;;;;;;5043440;28;20033;-69
2021/07/30 11:06:14;;;;;;;7.28;4.95;;;27.10;56.50;;;;;;5043949;28;20040;-69
2021/07/30 11:08:58;;;;;;;6.47;5.15;;;27.20;61.00;;;;;;5043967;28;20034;-69
2021/07/30 11:11:46;;;;;;;8.00;4.95;;;27.20;57.40;;;;;;5043909;28;20096;-69
2021/07/30 11:14:31;;;;;;;6.47;4.85;;;27.30;55.70;;;;;;5043852;28;20092;-69
2021/07/30 11:16:58;;;;;;;6.63;5.10;;;27.30;54.20;;;;;;5042364;28;20032;-69
2021/07/30 11:19:26;;;;;;;8.25;5.35;;;27.50;54.40;;;;;;5043684;28;20049;-69
2021/07/30 11:21:52;;;;;;;7.43;5.13;;;27.70;54.50;;;;;;5043470;28;20033;-69
2021/07/30 11:24:18;;;;;;;8.20;4.93;;;27.80;56.50;;;;;;5043479;28;20064;-69
2021/07/30 11:26:44;;;;;;;5.63;4.25;;;27.80;54.60;;;;;;5043744;28;20139;-69
2021/07/30 11:29:11;;;;;;;5.97;4.93;;;27.80;53.70;;;;;;5042324;28;20038;-69
2021/07/30 11:31:37;;;;;;;7.65;4.50;;;27.90;53.20;;;;;;5043451;28;20093;-69
2021/07/30 11:34:03;;;;;;;7.35;5.20;;;28.00;52.40;;;;;;5043538;28;20254;-69
2021/07/30 11:36:28;;;;;;;6.70;4.90;;;28.10;53.40;;;;;;5042053;28;20040;-68
2021/07/30 11:38:57;;;;;;;7.07;4.97;;;28.10;54.40;;;;;;5043948;28;20034;-69
2021/07/30 11:41:23;;;;;;;6.68;4.68;;;28.30;56.10;;;;;;5043531;28;20355;-69
2021/07/30 11:44:02;;;;;;;6.65;4.82;;;28.30;54.60;;;;;;5043365;28;20029;-69
2021/07/30 11:46:31;;;;;;;6.30;4.47;;;28.20;53.40;;;;;;5043482;28;20033;-70
2021/07/30 11:48:58;;;;;;;6.10;4.60;;;28.20;53.60;;;;;;5042153;28;20037;-70
2021/07/30 11:51:23;;;;;;;6.00;4.15;;;29.00;53.10;;;;;;5038278;28;20056;-70
2021/07/30 11:53:53;;;;;;;5.00;4.10;;;29.30;50.90;;;;;;5043099;28;20040;-70
2021/07/30 11:56:19;;;;;;;8.23;4.65;;;29.50;50.90;;;;;;5042130;28;20035;-70
2021/07/30 11:58:58;;;;;;;6.22;4.38;;;29.50;52.40;;;;;;5043465;28;20269;-70
2021/07/30 12:01:23;;;;;;;5.70;4.57;;;29.60;49.30;;;;;;5042024;28;20038;-70
2021/07/30 12:04:08;;;;;;;6.57;4.30;;;29.60;50.30;;;;;;5043465;28;20029;-69
2021/07/30 12:06:42;;;;;;;6.60;4.13;;;29.60;49.10;;;;;;5043210;28;20075;-70
2021/07/30 12:09:09;;;;;;;7.00;4.43;;;29.70;50.60;;;;;;5042028;28;20041;-70
2021/07/30 12:11:34;;;;;;;5.60;4.57;;;29.80;50.40;;;;;;5029058;28;20030;-69
2021/07/30 12:14:00;;;;;;;9.43;5.05;;;29.80;50.10;;;;;;5045296;28;20225;-68
2021/07/30 12:16:26;;;;;;;6.30;5.03;;;29.80;48.50;;;;;;5045963;28;20320;-67
2021/07/30 12:18:51;;;;;;;18.23;11.52;;;29.80;48.30;;;;;;5046680;28;20248;-69
2021/07/30 12:21:17;;;;;;;6.97;5.00;;;29.80;48.90;;;;;;5045434;28;20069;-70
2021/07/30 12:23:42;;;;;;;5.18;4.35;;;29.70;48.30;;;;;;5028315;28;20095;-69
2021/07/30 12:26:34;;;;;;;6.88;4.32;;;29.60;46.90;;;;;;5046234;28;20347;-68
2021/07/30 12:28:59;;;;;;;6.35;4.38;;;29.50;46.70;;;;;;5046282;28;20329;-68
2021/07/30 12:31:25;;;;;;;4.75;4.00;;;29.50;49.50;;;;;;5046506;28;20033;-70
2021/07/30 12:34:10;;;;;;;6.10;4.30;;;29.30;46.30;;;;;;5046385;28;20057;-69
2021/07/30 12:36:36;;;;;;;5.75;4.53;;;29.30;47.40;;;;;;5045015;28;20392;-68
2021/07/30 12:39:03;;;;;;;8.10;4.70;;;29.30;47.90;;;;;;5046051;28;20041;-68
2021/07/30 12:41:32;;;;;;;7.22;4.00;;;29.30;47.60;;;;;;5046019;28;20041;-68